Time;durP1;ratioP1;P1;durP2;ratioP2;P2;SDS_P1;SDS_P2;PMS_P1;PMS_P2;Temp;Humidity;BMP_temperature;BMP_pressure;BME280_temperature;BME280_humidity;BME280_pressure;Samples;Min_cycle;Max_cycle;Signal;HPM_P1;HPM_P2
2022/02/28 00:00:12;;;;;;;;;;;10.40;93.20;;;;;;5090055;28;19961;-72
2022/02/28 00:02:37;;;;;;;;;;;10.40;93.30;;;;;;5090361;28;19908;-72
2022/02/28 00:05:03;;;;;;;;;;;10.40;93.40;;;;;;5090192;28;20328;-72
2022/02/28 00:07:28;;;;;;;;;;;10.40;93.40;;;;;;5090133;28;19960;-72
2022/02/28 00:09:54;;;;;;;;;;;10.40;93.50;;;;;;5089511;28;19935;-72
2022/02/28 00:12:19;;;;;;;;;;;10.40;93.50;;;;;;5089449;28;19961;-72
2022/02/28 00:14:45;;;;;;;;;;;10.40;93.40;;;;;;5090138;28;20013;-72
2022/02/28 00:17:11;;;;;;;;;;;10.30;93.40;;;;;;5089995;28;20382;-72
2022/02/28 00:19:36;;;;;;;;;;;10.20;93.60;;;;;;5089894;28;19923;-72
2022/02/28 00:22:02;;;;;;;;;;;10.20;93.70;;;;;;5088773;28;19973;-72
2022/02/28 00:24:27;;;;;;;;;;;10.10;93.70;;;;;;5089802;28;19969;-72
2022/02/28 00:26:53;;;;;;;;;;;10.00;93.90;;;;;;5089799;28;19965;-72
2022/02/28 00:29:18;;;;;;;;;;;10.00;93.90;;;;;;5089790;28;20260;-72
2022/02/28 00:31:44;;;;;;;;;;;10.00;93.80;;;;;;5089810;28;20236;-73
2022/02/28 00:34:09;;;;;;;;;;;9.90;93.80;;;;;;5089784;28;20001;-73
2022/02/28 00:36:35;;;;;;;;;;;9.90;94.00;;;;;;5089476;28;19920;-72
2022/02/28 00:39:00;;;;;;;;;;;9.90;94.30;;;;;;5088223;28;20263;-73
2022/02/28 00:41:26;;;;;;;;;;;9.90;94.30;;;;;;5089563;28;19912;-73
2022/02/28 00:43:52;;;;;;;;;;;9.90;94.30;;;;;;5089413;28;19955;-72
2022/02/28 00:46:17;;;;;;;;;;;9.90;94.40;;;;;;5089540;28;20328;-73
2022/02/28 00:48:43;;;;;;;;;;;9.90;94.70;;;;;;5089244;28;19916;-73
2022/02/28 00:51:08;;;;;;;;;;;9.90;94.80;;;;;;5089383;28;19959;-73
2022/02/28 00:53:35;;;;;;;;;;;9.90;94.90;;;;;;5089767;28;19982;-73
2022/02/28 00:56:01;;;;;;;;;;;10.00;95.00;;;;;;5089507;28;19966;-73
2022/02/28 00:58:26;;;;;;;;;;;9.90;95.00;;;;;;5089137;28;19908;-72
2022/02/28 01:00:52;;;;;;;;;;;9.90;95.10;;;;;;5088997;28;19931;-73
2022/02/28 01:03:18;;;;;;;;;;;9.90;95.20;;;;;;5089057;28;20309;-73
2022/02/28 01:05:43;;;;;;;;;;;9.90;95.10;;;;;;5089121;28;19951;-73
2022/02/28 01:08:09;;;;;;;;;;;9.90;95.10;;;;;;5088958;28;19920;-73
2022/02/28 01:10:34;;;;;;;;;;;9.90;95.30;;;;;;5089386;28;20282;-73
2022/02/28 01:13:00;;;;;;;;;;;9.80;95.10;;;;;;5088785;28;19969;-73
2022/02/28 01:15:25;;;;;;;;;;;9.80;95.30;;;;;;5088977;28;19920;-73
2022/02/28 01:17:52;;;;;;;;;;;9.70;95.50;;;;;;5087879;28;19908;-73
2022/02/28 01:20:18;;;;;;;;;;;9.70;95.70;;;;;;5088819;28;19908;-73
2022/02/28 01:22:43;;;;;;;;;;;9.60;95.80;;;;;;5088471;28;20288;-73
2022/02/28 01:25:09;;;;;;;;;;;9.60;96.00;;;;;;5088699;28;19916;-73
2022/02/28 01:27:35;;;;;;;;;;;9.60;96.20;;;;;;5088734;28;19913;-73
2022/02/28 01:30:01;;;;;;;;;;;9.60;96.30;;;;;;5088582;28;20386;-73
2022/02/28 01:32:26;;;;;;;;;;;9.60;96.30;;;;;;5088637;28;19912;-73
2022/02/28 01:34:52;;;;;;;;;;;9.70;96.30;;;;;;5088367;28;19927;-73
2022/02/28 01:37:17;;;;;;;;;;;9.70;96.50;;;;;;5087173;28;19908;-73
2022/02/28 01:39:45;;;;;;;;;;;9.70;96.50;;;;;;5088474;28;19951;-73
2022/02/28 01:42:15;;;;;;;;;;;9.60;96.50;;;;;;5088585;28;19919;-73
2022/02/28 01:44:41;;;;;;;;;;;9.70;96.70;;;;;;5088349;28;19916;-73
2022/02/28 01:47:08;;;;;;;;;;;9.60;96.60;;;;;;5088491;28;20010;-73
2022/02/28 01:49:33;;;;;;;;;;;9.60;96.60;;;;;;5088246;28;19916;-72
2022/02/28 01:51:59;;;;;;;;;;;9.70;96.80;;;;;;5088343;28;19919;-73
2022/02/28 01:54:24;;;;;;;;;;;9.70;96.70;;;;;;5088281;28;19999;-73
2022/02/28 01:56:50;;;;;;;;;;;9.70;96.60;;;;;;5088232;28;20348;-73
2022/02/28 01:59:16;;;;;;;;;;;9.80;96.70;;;;;;5088171;28;19916;-72
2022/02/28 02:01:41;;;;;;;;;;;9.80;96.80;;;;;;5088224;28;19912;-73
2022/02/28 02:04:07;;;;;;;;;;;9.80;96.80;;;;;;5086787;28;19916;-73
2022/02/28 02:06:33;;;;;;;;;;;9.90;96.80;;;;;;5088057;28;19923;-73
2022/02/28 02:08:59;;;;;;;;;;;9.90;96.70;;;;;;5088061;28;19974;-73
2022/02/28 02:11:25;;;;;;;;;;;10.00;96.80;;;;;;5088078;28;19959;-73
2022/02/28 02:13:50;;;;;;;;;;;10.00;96.80;;;;;;5086791;28;20358;-73
2022/02/28 02:16:16;;;;;;;;;;;10.00;96.90;;;;;;5088019;28;20010;-73
2022/02/28 02:18:42;;;;;;;;;;;10.10;97.00;;;;;;5087967;28;19916;-73
2022/02/28 02:21:07;;;;;;;;;;;10.10;97.00;;;;;;5088425;28;19953;-73
2022/02/28 02:23:33;;;;;;;;;;;10.20;97.00;;;;;;5087857;28;19923;-73
2022/02/28 02:25:59;;;;;;;;;;;10.10;96.90;;;;;;5088029;28;20370;-74
2022/02/28 02:28:24;;;;;;;;;;;10.20;96.90;;;;;;5087737;28;20047;-73
2022/02/28 02:30:51;;;;;;;;;;;10.20;97.00;;;;;;5087988;28;19912;-74
2022/02/28 02:33:17;;;;;;;;;;;10.20;97.00;;;;;;5087850;28;19908;-74
2022/02/28 02:35:53;;;;;;;;;;;10.30;97.10;;;;;;5091529;28;19942;-73
2022/02/28 02:38:19;;;;;;;;;;;10.30;97.00;;;;;;5091999;28;19907;-74
2022/02/28 02:40:44;;;;;;;;;;;10.40;97.00;;;;;;5090534;28;19915;-73
2022/02/28 02:43:10;;;;;;;;;;;10.40;97.20;;;;;;5091766;28;19955;-74
2022/02/28 02:45:35;;;;;;;;;;;10.40;97.20;;;;;;5091929;28;19916;-73
2022/02/28 02:48:21;;;;;;;;;;;10.40;97.10;;;;;;5090187;28;19915;-74
2022/02/28 02:50:47;;;;;;;;;;;10.40;97.10;;;;;;5091193;28;19912;-74
2022/02/28 02:53:12;;;;;;;;;;;10.30;97.10;;;;;;5091725;28;19912;-73
2022/02/28 02:55:38;;;;;;;;;;;10.30;97.20;;;;;;5091891;28;19908;-73
2022/02/28 02:58:04;;;;;;;;;;;10.30;97.30;;;;;;5090234;28;20011;-73
2022/02/28 03:00:31;;;;;;;;;;;10.30;97.50;;;;;;5090114;28;19930;-73
2022/02/28 03:02:56;;;;;;;;;;;10.30;97.60;;;;;;5091344;28;19966;-73
2022/02/28 03:05:22;;;;;;;;;;;10.30;97.80;;;;;;5091253;28;20255;-73
2022/02/28 03:07:47;;;;;;;;;;;10.30;97.80;;;;;;5091208;28;19931;-73
2022/02/28 03:10:13;;;;;;;;;;;10.40;98.00;;;;;;5091255;28;19916;-74
2022/02/28 03:12:39;;;;;;;;;;;10.40;97.90;;;;;;5091367;28;19943;-73
2022/02/28 03:15:06;;;;;;;;;;;10.40;97.90;;;;;;5091261;28;20277;-73
2022/02/28 03:17:32;;;;;;;;;;;10.40;98.00;;;;;;5091122;28;20288;-73
2022/02/28 03:19:57;;;;;;;;;;;10.40;98.10;;;;;;5091083;28;20056;-73
2022/02/28 03:22:23;;;;;;;;;;;10.40;98.30;;;;;;5091144;28;20014;-73
2022/02/28 03:24:48;;;;;;;;;;;10.40;98.20;;;;;;5091179;28;19927;-73
2022/02/28 03:27:14;;;;;;;;;;;10.40;98.20;;;;;;5091051;28;19912;-73
2022/02/28 03:29:39;;;;;;;;;;;10.40;98.30;;;;;;5090926;28;19912;-73
2022/02/28 03:32:05;;;;;;;;;;;10.40;98.40;;;;;;5091003;28;19919;-73
2022/02/28 03:34:31;;;;;;;;;;;10.50;98.40;;;;;;5089411;28;19915;-73
2022/02/28 03:36:56;;;;;;;;;;;10.40;98.40;;;;;;5090881;28;19923;-73
2022/02/28 03:39:25;;;;;;;;;;;10.50;98.30;;;;;;5090802;28;19912;-73
2022/02/28 03:41:53;;;;;;;;;;;10.50;98.50;;;;;;5090798;28;19919;-73
2022/02/28 03:44:22;;;;;;;;;;;10.50;98.50;;;;;;5089335;28;20007;-73
2022/02/28 03:46:48;;;;;;;;;;;10.50;98.40;;;;;;5090598;28;19915;-73
2022/02/28 03:49:14;;;;;;;;;;;10.50;98.40;;;;;;5090647;28;20382;-73
2022/02/28 03:51:40;;;;;;;;;;;10.50;98.50;;;;;;5089219;28;20002;-74
2022/02/28 03:54:10;;;;;;;;;;;10.50;98.60;;;;;;5089203;28;20003;-73
2022/02/28 03:56:36;;;;;;;;;;;10.50;98.70;;;;;;5073133;28;19912;-73
2022/02/28 03:59:02;;;;;;;;;;;10.50;98.70;;;;;;5090482;28;19912;-73
2022/02/28 04:01:27;;;;;;;;;;;10.50;98.90;;;;;;5090331;28;20007;-73
2022/02/28 04:03:53;;;;;;;;;;;10.50;99.00;;;;;;5090504;28;19920;-73
2022/02/28 04:06:18;;;;;;;;;;;10.50;99.00;;;;;;5090389;28;19912;-73
2022/02/28 04:08:44;;;;;;;;;;;10.50;99.00;;;;;;5089006;28;19989;-73
2022/02/28 04:11:10;;;;;;;;;;;10.50;99.10;;;;;;5090330;28;19935;-73
2022/02/28 04:13:35;;;;;;;;;;;10.60;99.10;;;;;;5090278;28;19957;-73
2022/02/28 04:16:01;;;;;;;;;;;10.60;99.20;;;;;;5088742;28;19916;-73
2022/02/28 04:18:26;;;;;;;;;;;10.60;99.30;;;;;;5090001;28;19961;-73
2022/02/28 04:20:52;;;;;;;;;;;10.50;99.40;;;;;;5089978;28;19912;-73
2022/02/28 04:23:17;;;;;;;;;;;10.60;99.60;;;;;;5088487;28;19970;-73
2022/02/28 04:25:44;;;;;;;;;;;10.60;99.70;;;;;;5088599;28;19926;-73
2022/02/28 04:28:09;;;;;;;;;;;10.60;99.70;;;;;;5089715;28;20071;-73
2022/02/28 04:30:35;;;;;;;;;;;10.50;99.60;;;;;;5089712;28;20061;-73
2022/02/28 04:33:00;;;;;;;;;;;10.60;99.70;;;;;;5089734;28;20362;-73
2022/02/28 04:35:26;;;;;;;;;;;10.50;99.70;;;;;;5089440;28;19947;-73
2022/02/28 04:37:51;;;;;;;;;;;10.50;99.70;;;;;;5088357;28;19935;-73
2022/02/28 04:40:17;;;;;;;;;;;10.50;99.80;;;;;;5089466;28;19914;-73
2022/02/28 04:42:42;;;;;;;;;;;10.50;99.80;;;;;;5088206;28;19919;-73
2022/02/28 04:45:08;;;;;;;;;;;10.60;99.90;;;;;;5088150;28;19916;-74
2022/02/28 04:47:34;;;;;;;;;;;10.60;99.90;;;;;;5089487;28;19966;-73
2022/02/28 04:49:59;;;;;;;;;;;10.60;99.90;;;;;;5089376;28;19935;-73
2022/02/28 04:52:25;;;;;;;;;;;10.60;99.90;;;;;;5089369;28;19912;-74
2022/02/28 04:54:50;;;;;;;;;;;10.60;99.90;;;;;;5089254;28;20013;-73
2022/02/28 04:57:16;;;;;;;;;;;10.70;99.90;;;;;;5088528;28;20324;-73
2022/02/28 04:59:43;;;;;;;;;;;10.60;99.90;;;;;;5087707;28;19912;-73
2022/02/28 05:02:08;;;;;;;;;;;10.60;99.90;;;;;;5089149;28;19915;-73
2022/02/28 05:04:34;;;;;;;;;;;10.70;99.90;;;;;;5088836;28;19916;-74
2022/02/28 05:06:59;;;;;;;;;;;10.70;99.90;;;;;;5087719;28;19912;-73
2022/02/28 05:09:25;;;;;;;;;;;10.70;99.90;;;;;;5088922;28;20374;-73
2022/02/28 05:11:50;;;;;;;;;;;10.70;99.90;;;;;;5088865;28;19973;-73
2022/02/28 05:14:16;;;;;;;;;;;10.70;99.90;;;;;;5088935;28;19916;-73
2022/02/28 05:16:42;;;;;;;;;;;10.70;99.90;;;;;;5088833;28;20346;-73
2022/02/28 05:19:07;;;;;;;;;;;10.70;99.90;;;;;;5088772;28;20282;-73
2022/02/28 05:21:34;;;;;;;;;;;10.70;99.90;;;;;;5088785;28;19927;-73
2022/02/28 05:23:59;;;;;;;;;;;10.70;99.90;;;;;;5088561;28;19912;-73
2022/02/28 05:26:25;;;;;;;;;;;10.70;99.90;;;;;;5088538;28;19916;-73
2022/02/28 05:28:50;;;;;;;;;;;10.70;99.90;;;;;;5088662;28;19919;-73
2022/02/28 05:31:16;;;;;;;;;;;10.70;99.90;;;;;;5088585;28;19913;-74
2022/02/28 05:33:41;;;;;;;;;;;10.70;99.90;;;;;;5088539;28;19916;-73
2022/02/28 05:36:07;;;;;;;;;;;10.70;99.90;;;;;;5088437;28;19931;-73
2022/02/28 05:38:33;;;;;;;;;;;10.70;99.90;;;;;;5088422;28;20019;-73
2022/02/28 05:40:59;;;;;;;;;;;10.70;99.90;;;;;;5088421;28;19977;-73
2022/02/28 05:43:24;;;;;;;;;;;10.70;99.90;;;;;;5088272;28;20037;-73
2022/02/28 05:45:51;;;;;;;;;;;10.60;99.90;;;;;;5088365;28;20007;-73
2022/02/28 05:48:16;;;;;;;;;;;10.60;99.90;;;;;;5088338;28;19958;-73
2022/02/28 05:50:42;;;;;;;;;;;10.50;99.90;;;;;;5088646;28;19913;-73
2022/02/28 05:53:08;;;;;;;;;;;10.50;99.90;;;;;;5088269;28;19938;-73
2022/02/28 05:55:36;;;;;;;;;;;10.60;99.90;;;;;;5088223;28;20365;-73
2022/02/28 05:58:02;;;;;;;;;;;10.60;99.90;;;;;;5088013;28;19913;-73
2022/02/28 06:00:27;;;;;;;;;;;10.60;99.90;;;;;;5088215;28;20003;-73
2022/02/28 06:02:53;;;;;;;;;;;10.60;99.90;;;;;;5088115;28;20019;-73
2022/02/28 06:05:19;;;;;;;;;;;10.50;99.90;;;;;;5088055;28;19918;-73
2022/02/28 06:07:44;;;;;;;;;;;10.50;99.90;;;;;;5088039;28;20346;-73
2022/02/28 06:10:10;;;;;;;;;;;10.50;99.90;;;;;;5087986;28;20362;-73
2022/02/28 06:12:35;;;;;;;;;;;10.50;99.90;;;;;;5087969;28;20002;-73
2022/02/28 06:15:01;;;;;;;;;;;10.40;99.90;;;;;;5087951;28;19916;-73
2022/02/28 06:17:26;;;;;;;;;;;10.40;99.90;;;;;;5087871;28;19917;-73
2022/02/28 06:19:52;;;;;;;;;;;10.40;99.90;;;;;;5087848;28;19912;-73
2022/02/28 06:22:18;;;;;;;;;;;10.40;99.90;;;;;;5087886;28;19908;-73
2022/02/28 06:24:43;;;;;;;;;;;10.30;99.90;;;;;;5087820;28;20385;-73
2022/02/28 06:27:09;;;;;;;;;;;10.40;99.90;;;;;;5087762;28;19916;-73
2022/02/28 06:29:34;;;;;;;;;;;10.30;99.90;;;;;;5087647;28;19912;-73
2022/02/28 06:32:00;;;;;;;;;;;10.30;99.90;;;;;;5087656;28;19919;-74
2022/02/28 06:34:31;;;;;;;;;;;10.30;99.90;;;;;;5087541;28;20424;-74
2022/02/28 06:36:57;;;;;;;;;;;10.30;99.90;;;;;;5087750;28;20370;-73
2022/02/28 06:39:23;;;;;;;;;;;10.20;99.90;;;;;;5087661;28;19913;-73
2022/02/28 06:41:48;;;;;;;;;;;10.20;99.90;;;;;;5087737;28;19923;-73
2022/02/28 06:44:14;;;;;;;;;;;10.20;99.90;;;;;;5087464;28;19959;-72
2022/02/28 06:46:39;;;;;;;;;;;10.30;99.90;;;;;;5087679;28;20278;-73
2022/02/28 06:49:05;;;;;;;;;;;10.30;99.90;;;;;;5087541;28;20392;-73
2022/02/28 06:51:30;;;;;;;;;;;10.30;99.90;;;;;;5087478;28;20002;-73
2022/02/28 06:53:56;;;;;;;;;;;10.30;99.90;;;;;;5087334;28;19908;-73
2022/02/28 06:56:21;;;;;;;;;;;10.30;99.90;;;;;;5086115;28;19912;-73
2022/02/28 06:58:47;;;;;;;;;;;10.20;99.90;;;;;;5087569;28;19916;-73
2022/02/28 07:01:13;;;;;;;;;;;10.20;99.90;;;;;;5087250;28;19924;-73
2022/02/28 07:03:38;;;;;;;;;;;10.20;99.80;;;;;;5087830;28;19916;-73
2022/02/28 07:06:04;;;;;;;;;;;10.20;99.80;;;;;;5085982;28;19916;-72
2022/02/28 07:08:30;;;;;;;;;;;10.20;99.70;;;;;;5087073;28;19908;-73
2022/02/28 07:10:56;;;;;;;;;;;10.10;99.70;;;;;;5087175;28;19908;-73
2022/02/28 07:13:22;;;;;;;;;;;10.10;99.70;;;;;;5086846;28;19920;-73
2022/02/28 07:15:48;;;;;;;;;;;10.10;99.90;;;;;;5086927;28;19916;-73
2022/02/28 07:18:14;;;;;;;;;;;10.00;99.70;;;;;;5086797;28;19923;-73
2022/02/28 07:20:39;;;;;;;;;;;10.00;99.70;;;;;;5088829;28;19914;-73
2022/02/28 07:23:05;;;;;;;;;;;10.00;99.80;;;;;;5090369;28;19923;-73
2022/02/28 07:25:31;;;;;;;;;;;10.00;99.70;;;;;;5090573;28;20278;-73
2022/02/28 07:27:57;;;;;;;;;;;10.00;99.70;;;;;;5088911;28;19920;-73
2022/02/28 07:30:22;;;;;;;;;;;10.00;99.70;;;;;;5088927;28;19912;-73
2022/02/28 07:32:48;;;;;;;;;;;10.10;99.60;;;;;;5089937;28;19915;-74
2022/02/28 07:35:14;;;;;;;;;;;10.10;99.60;;;;;;5090957;28;19946;-73
2022/02/28 07:37:40;;;;;;;;;;;10.10;99.50;;;;;;5093151;28;19912;-75
2022/02/28 07:40:06;;;;;;;;;;;10.10;99.50;;;;;;5090180;28;19908;-74
2022/02/28 07:42:32;;;;;;;;;;;10.20;99.50;;;;;;5090492;28;20269;-74
2022/02/28 07:44:57;;;;;;;;;;;10.20;99.50;;;;;;5089377;28;19920;-74
2022/02/28 07:47:23;;;;;;;;;;;10.20;99.50;;;;;;5089565;28;19912;-74
2022/02/28 07:49:48;;;;;;;;;;;10.20;99.40;;;;;;5089969;28;20000;-74
2022/02/28 07:52:14;;;;;;;;;;;10.20;99.40;;;;;;5089800;28;20282;-74
2022/02/28 07:54:40;;;;;;;;;;;10.20;99.40;;;;;;5089095;28;20289;-73
2022/02/28 07:57:05;;;;;;;;;;;10.20;99.50;;;;;;5089485;28;19969;-74
2022/02/28 07:59:31;;;;;;;;;;;10.30;99.50;;;;;;5089309;28;19944;-73
2022/02/28 08:01:56;;;;;;;;;;;10.30;99.50;;;;;;5089683;28;19924;-73
2022/02/28 08:04:22;;;;;;;;;;;10.30;99.60;;;;;;5089483;28;19968;-73
2022/02/28 08:06:47;;;;;;;;;;;10.30;99.60;;;;;;5087724;28;20434;-73
2022/02/28 08:09:13;;;;;;;;;;;10.40;99.70;;;;;;5089413;28;20350;-72
2022/02/28 08:11:38;;;;;;;;;;;10.40;99.60;;;;;;5089086;28;19916;-74
2022/02/28 08:14:04;;;;;;;;;;;10.40;99.60;;;;;;5088983;28;19916;-73
2022/02/28 08:16:30;;;;;;;;;;;10.50;99.90;;;;;;5089212;28;19912;-73
2022/02/28 08:18:55;;;;;;;;;;;10.50;99.70;;;;;;5089141;28;19912;-73
2022/02/28 08:21:21;;;;;;;;;;;10.60;99.80;;;;;;5088661;28;19913;-73
2022/02/28 08:23:47;;;;;;;;;;;10.60;99.80;;;;;;5089083;28;19920;-73
2022/02/28 08:26:12;;;;;;;;;;;10.70;99.90;;;;;;5088978;28;19912;-73
2022/02/28 08:28:38;;;;;;;;;;;10.80;99.90;;;;;;5088606;28;19919;-72
2022/02/28 08:31:04;;;;;;;;;;;10.90;99.90;;;;;;5086887;28;20282;-73
2022/02/28 08:33:30;;;;;;;;;;;11.00;99.90;;;;;;5088344;28;20322;-72
2022/02/28 08:35:55;;;;;;;;;;;11.00;99.80;;;;;;5087154;28;19995;-73
2022/02/28 08:38:21;;;;;;;;;;;11.10;99.90;;;;;;5088106;28;20386;-72
2022/02/28 08:40:47;;;;;;;;;;;11.10;99.90;;;;;;5088436;28;20317;-73
2022/02/28 08:43:13;;;;;;;;;;;11.20;99.90;;;;;;5087702;28;19912;-73
2022/02/28 08:45:38;;;;;;;;;;;11.20;99.90;;;;;;5088132;28;20358;-72
2022/02/28 08:48:04;;;;;;;;;;;11.20;99.90;;;;;;5086763;28;20016;-72
2022/02/28 08:50:30;;;;;;;;;;;11.30;99.90;;;;;;5088075;28;20098;-73
2022/02/28 08:52:55;;;;;;;;;;;11.30;99.90;;;;;;5086386;28;19912;-73
2022/02/28 08:55:21;;;;;;;;;;;11.30;99.90;;;;;;5088016;28;20389;-74
2022/02/28 08:57:46;;;;;;;;;;;11.30;99.90;;;;;;5087956;28;20007;-72
2022/02/28 09:00:12;;;;;;;;;;;11.30;99.90;;;;;;5087922;28;19921;-72
2022/02/28 09:02:38;;;;;;;;;;;11.30;99.90;;;;;;5085935;28;20064;-74
2022/02/28 09:05:04;;;;;;;;;;;11.30;99.90;;;;;;5088374;28;19928;-74
2022/02/28 09:07:31;;;;;;;;;;;11.30;99.90;;;;;;5065194;28;19996;-72
2022/02/28 09:09:57;;;;;;;;;;;11.30;99.90;;;;;;5067499;28;19913;-73
2022/02/28 09:12:23;;;;;;;;;;;11.30;99.90;;;;;;5087434;28;19920;-73
2022/02/28 09:14:49;;;;;;;;;;;11.30;99.90;;;;;;5087558;28;20290;-74
2022/02/28 09:17:14;;;;;;;;;;;11.50;99.90;;;;;;5087641;28;19908;-73
2022/02/28 09:19:40;;;;;;;;;;;11.60;99.90;;;;;;5087221;28;19919;-72
2022/02/28 09:22:06;;;;;;;;;;;11.70;99.90;;;;;;5086898;28;19923;-74
2022/02/28 09:24:33;;;;;;;;;;;11.80;99.90;;;;;;5087096;28;20195;-73
2022/02/28 09:27:00;;;;;;;;;;;11.90;99.90;;;;;;5084887;28;19996;-72
2022/02/28 09:29:25;;;;;;;;;;;11.90;99.90;;;;;;5086947;28;20304;-73
2022/02/28 09:31:51;;;;;;;;;;;11.90;99.70;;;;;;5086803;28;19978;-74
2022/02/28 09:34:16;;;;;;;;;;;12.00;99.70;;;;;;5084500;28;19915;-73
2022/02/28 09:36:42;;;;;;;;;;;11.90;99.70;;;;;;5087694;28;19916;-73
2022/02/28 09:39:08;;;;;;;;;;;11.90;99.60;;;;;;5087283;28;19960;-73
2022/02/28 09:41:35;;;;;;;;;;;12.00;99.70;;;;;;5087247;28;19916;-73
2022/02/28 09:44:01;;;;;;;;;;;12.00;99.80;;;;;;5086502;28;19926;-74
2022/02/28 09:46:28;;;;;;;;;;;12.10;99.80;;;;;;5086798;28;19909;-72
2022/02/28 09:48:54;;;;;;;;;;;12.30;99.80;;;;;;5082603;28;19920;-72
2022/02/28 09:51:20;;;;;;;;;;;12.50;99.80;;;;;;5086834;28;19960;-72
2022/02/28 09:53:45;;;;;;;;;;;12.60;99.60;;;;;;5076804;28;19974;-73
2022/02/28 09:56:11;;;;;;;;;;;12.70;99.50;;;;;;5078869;28;20312;-73
2022/02/28 09:58:36;;;;;;;;;;;12.70;99.30;;;;;;5083742;28;19916;-74
2022/02/28 10:01:02;;;;;;;;;;;12.70;99.10;;;;;;5086314;28;19908;-73
2022/02/28 10:03:28;;;;;;;;;;;12.60;98.90;;;;;;5086547;28;19966;-73
2022/02/28 10:06:01;;;;;;;;;;;12.60;98.90;;;;;;5086402;28;20003;-73
2022/02/28 10:08:50;;;;;;;;;;;12.50;98.80;;;;;;5066323;28;20290;-73
2022/02/28 10:11:23;;;;;;;;;;;12.40;98.80;;;;;;5061456;28;19909;-73
2022/02/28 10:13:49;;;;;;;;;;;12.20;98.80;;;;;;5067015;28;19909;-75
2022/02/28 10:16:26;;;;;;;;;;;12.20;98.90;;;;;;5075699;28;19912;-75
2022/02/28 10:18:51;;;;;;;;;;;12.10;98.90;;;;;;5088327;28;20633;-73
2022/02/28 10:21:33;;;;;;;;;;;12.10;99.00;;;;;;5087424;28;20059;-73
2022/02/28 10:23:59;;;;;;;;;;;12.00;99.00;;;;;;5086855;28;19940;-73
2022/02/28 10:26:24;;;;;;;;;;;12.00;99.00;;;;;;5087087;28;19912;-73
2022/02/28 10:29:02;;;;;;;;;;;12.00;99.00;;;;;;5087302;28;19981;-74
2022/02/28 10:31:28;;;;;;;;;;;11.90;99.00;;;;;;5086299;28;19912;-72
2022/02/28 10:33:55;;;;;;;;;;;12.00;99.10;;;;;;5087709;28;20477;-74
2022/02/28 10:36:23;;;;;;;;;;;11.90;99.00;;;;;;5088214;28;19985;-73
2022/02/28 10:38:50;;;;;;;;;;;12.00;99.10;;;;;;5087872;28;19923;-73
2022/02/28 10:41:18;;;;;;;;;;;12.00;99.10;;;;;;5088252;28;20044;-74
2022/02/28 10:43:45;;;;;;;;;;;12.10;99.10;;;;;;5087612;28;19996;-73
2022/02/28 10:46:15;;;;;;;;;;;12.10;99.00;;;;;;5087300;28;20020;-73
2022/02/28 10:48:40;;;;;;;;;;;12.10;99.00;;;;;;5087112;28;19908;-69
2022/02/28 10:51:24;;;;;;;;;;;12.10;98.90;;;;;;5086530;28;19935;-72
2022/02/28 10:54:09;;;;;;;;;;;12.10;98.80;;;;;;5087278;28;20036;-73
2022/02/28 10:56:46;;;;;;;;;;;12.10;98.80;;;;;;5086584;28;19916;-74
2022/02/28 10:59:22;;;;;;;;;;;12.10;98.90;;;;;;5087752;28;19927;-74
2022/02/28 11:01:57;;;;;;;;;;;12.00;98.80;;;;;;5071343;28;19912;-73
2022/02/28 11:04:30;;;;;;;;;;;12.00;98.80;;;;;;5088426;28;19923;-72
2022/02/28 11:06:55;;;;;;;;;;;12.00;98.80;;;;;;5091110;28;19966;-71
2022/02/28 11:09:34;;;;;;;;;;;12.00;98.70;;;;;;5090634;28;20381;-73
2022/02/28 11:12:19;;;;;;;;;;;12.00;98.70;;;;;;5090355;28;19916;-74
2022/02/28 11:14:47;;;;;;;;;;;12.00;98.70;;;;;;5090976;28;19913;-73
2022/02/28 11:17:16;;;;;;;;;;;12.00;98.70;;;;;;5091539;28;19916;-72
2022/02/28 11:19:41;;;;;;;;;;;12.00;98.70;;;;;;5090174;28;19916;-73
2022/02/28 11:22:08;;;;;;;;;;;12.10;98.70;;;;;;5090503;28;20347;-74
2022/02/28 11:24:33;;;;;;;;;;;12.20;98.60;;;;;;5090540;28;19920;-73
2022/02/28 11:26:59;;;;;;;;;;;12.30;98.50;;;;;;5090616;28;19912;-73
2022/02/28 11:29:25;;;;;;;;;;;12.30;98.40;;;;;;5090671;28;19916;-73
2022/02/28 11:31:54;;;;;;;;;;;12.40;98.40;;;;;;5090596;28;19970;-72
2022/02/28 11:34:23;;;;;;;;;;;12.50;98.30;;;;;;5090415;28;20011;-72
2022/02/28 11:36:50;;;;;;;;;;;12.60;98.10;;;;;;5089922;28;20284;-72
2022/02/28 11:39:15;;;;;;;;;;;12.60;98.00;;;;;;5089049;28;19960;-73
2022/02/28 11:41:41;;;;;;;;;;;12.60;97.80;;;;;;5090120;28;19916;-73
2022/02/28 11:44:08;;;;;;;;;;;12.60;97.60;;;;;;5090361;28;19932;-73
2022/02/28 11:46:36;;;;;;;;;;;12.60;97.50;;;;;;5090017;28;20048;-72
2022/02/28 11:49:02;;;;;;;;;;;12.50;97.50;;;;;;5090047;28;20019;-73
2022/02/28 11:51:31;;;;;;;;;;;12.50;97.50;;;;;;5089885;28;19918;-73
2022/02/28 11:53:58;;;;;;;;;;;12.40;97.50;;;;;;5088475;28;20350;-73
2022/02/28 11:56:24;;;;;;;;;;;12.50;97.60;;;;;;5089518;28;20007;-72
2022/02/28 11:58:49;;;;;;;;;;;12.50;97.60;;;;;;5089329;28;19908;-72
2022/02/28 12:01:17;;;;;;;;;;;12.60;97.70;;;;;;5090019;28;19912;-71
2022/02/28 12:03:49;;;;;;;;;;;12.60;97.60;;;;;;5089358;28;19924;-72
2022/02/28 12:06:33;;;;;;;;;;;12.70;97.60;;;;;;5088417;28;19908;-72
2022/02/28 12:09:09;;;;;;;;;;;12.80;97.60;;;;;;5086616;28;19915;-71
2022/02/28 12:11:35;;;;;;;;;;;12.90;97.40;;;;;;5087649;28;19962;-69
2022/02/28 12:14:04;;;;;;;;;;;12.90;97.40;;;;;;5089411;28;19916;-72
2022/02/28 12:19:27;;;;;;;;;;;13.00;97.30;;;;;;5089520;28;20300;-72
2022/02/28 12:22:00;;;;;;;;;;;13.10;97.20;;;;;;5087831;28;19962;-73
2022/02/28 12:24:52;;;;;;;;;;;13.10;96.90;;;;;;5087731;28;19971;-74
2022/02/28 12:27:18;;;;;;;;;;;13.00;96.80;;;;;;5087722;28;19999;-73
2022/02/28 12:29:44;;;;;;;;;;;13.10;96.80;;;;;;5088589;28;20023;-73
2022/02/28 12:32:09;;;;;;;;;;;13.00;96.70;;;;;;5086818;28;19913;-74
2022/02/28 12:34:35;;;;;;;;;;;13.00;96.70;;;;;;5083890;28;19916;-74
2022/02/28 12:37:01;;;;;;;;;;;13.00;96.70;;;;;;5086164;28;20075;-73
2022/02/28 12:39:26;;;;;;;;;;;13.00;96.80;;;;;;5086795;28;19923;-77
2022/02/28 12:41:56;;;;;;;;;;;13.00;96.60;;;;;;5089880;28;19923;-77
2022/02/28 12:44:22;;;;;;;;;;;13.00;96.50;;;;;;5088432;28;19924;-73
2022/02/28 12:46:49;;;;;;;;;;;12.90;96.30;;;;;;5087732;28;20286;-73
2022/02/28 12:49:16;;;;;;;;;;;12.80;96.30;;;;;;5089149;28;20287;-73
2022/02/28 12:51:42;;;;;;;;;;;12.80;96.20;;;;;;5088647;28;19916;-73
2022/02/28 12:54:20;;;;;;;;;;;12.80;96.30;;;;;;5089197;28;20263;-74
2022/02/28 12:56:56;;;;;;;;;;;12.80;96.30;;;;;;5088989;28;20274;-72
2022/02/28 12:59:38;;;;;;;;;;;12.80;96.30;;;;;;5087634;28;19973;-72
2022/02/28 13:02:05;;;;;;;;;;;12.70;96.10;;;;;;5088324;28;19916;-74
2022/02/28 13:04:31;;;;;;;;;;;12.70;96.00;;;;;;5088880;28;19916;-74
2022/02/28 13:06:56;;;;;;;;;;;12.60;96.10;;;;;;5088529;28;19919;-73
2022/02/28 13:09:22;;;;;;;;;;;12.60;96.10;;;;;;5089102;28;19966;-73
2022/02/28 13:11:49;;;;;;;;;;;12.50;96.00;;;;;;5090393;28;19983;-74
2022/02/28 13:14:16;;;;;;;;;;;12.40;95.90;;;;;;5088348;28;20366;-73
2022/02/28 13:16:43;;;;;;;;;;;12.40;95.90;;;;;;5090290;28;19908;-73
2022/02/28 13:19:17;;;;;;;;;;;12.30;95.80;;;;;;5088718;28;19911;-73
2022/02/28 13:22:02;;;;;;;;;;;12.30;95.70;;;;;;5088716;28;19916;-73
2022/02/28 13:24:29;;;;;;;;;;;12.20;95.20;;;;;;5087888;28;19913;-72
2022/02/28 13:26:55;;;;;;;;;;;12.00;95.20;;;;;;5088555;28;20270;-73
2022/02/28 13:29:22;;;;;;;;;;;11.90;95.30;;;;;;5088668;28;19916;-73
2022/02/28 13:31:49;;;;;;;;;;;11.90;95.30;;;;;;5085992;28;19915;-72
2022/02/28 13:34:15;;;;;;;;;;;11.80;95.40;;;;;;5088806;28;19950;-74
2022/02/28 13:37:00;;;;;;;;;;;11.80;95.30;;;;;;5088576;28;19935;-73
2022/02/28 13:39:27;;;;;;;;;;;11.80;95.20;;;;;;5088061;28;19908;-74
2022/02/28 13:41:53;;;;;;;;;;;11.90;95.40;;;;;;5088213;28;19912;-73
2022/02/28 13:44:19;;;;;;;;;;;11.90;95.10;;;;;;5086894;28;19916;-74
2022/02/28 13:47:00;;;;;;;;;;;12.00;95.30;;;;;;5088097;28;19957;-73
2022/02/28 13:49:36;;;;;;;;;;;12.00;95.20;;;;;;5089013;28;19908;-73
2022/02/28 13:52:02;;;;;;;;;;;12.10;95.10;;;;;;5088595;28;20420;-73
2022/02/28 13:54:28;;;;;;;;;;;12.00;95.00;;;;;;5088289;28;19912;-72
2022/02/28 13:56:54;;;;;;;;;;;12.00;95.10;;;;;;5088503;28;20377;-73
2022/02/28 13:59:24;;;;;;;;;;;12.00;95.00;;;;;;5089244;28;19908;-75
2022/02/28 14:01:49;;;;;;;;;;;12.00;94.90;;;;;;5084472;28;19908;-70
2022/02/28 14:04:15;;;;;;;;;;;11.90;94.50;;;;;;5088266;28;19919;-74
2022/02/28 14:06:41;;;;;;;;;;;11.80;94.10;;;;;;5088080;28;19916;-74
2022/02/28 14:09:07;;;;;;;;;;;11.50;94.30;;;;;;5088897;28;19912;-75
2022/02/28 14:11:35;;;;;;;;;;;11.40;94.40;;;;;;5089008;28;20346;-76
2022/02/28 14:14:00;;;;;;;;;;;11.20;94.40;;;;;;5089695;28;20045;-78
2022/02/28 14:16:31;;;;;;;;;;;11.10;94.50;;;;;;5088813;28;19995;-74
2022/02/28 14:18:59;;;;;;;;;;;11.00;94.50;;;;;;5088612;28;19908;-74